sensor_id;sensor_type;location;lat;lon;timestamp;temperature;humidity
51853;DHT22;37894;53.172;6.598;2022-11-15T00:01:36;8.40;99.90
51853;DHT22;37894;53.172;6.598;2022-11-15T00:04:05;6.90;99.90
51853;DHT22;37894;53.172;6.598;2022-11-15T00:06:31;7.60;99.90
51853;DHT22;37894;53.172;6.598;2022-11-15T00:09:00;7.70;99.90
51853;DHT22;37894;53.172;6.598;2022-11-15T00:11:26;7.40;99.90
51853;DHT22;37894;53.172;6.598;2022-11-15T00:13:55;7.70;99.90
51853;DHT22;37894;53.172;6.598;2022-11-15T00:16:21;7.60;99.90
51853;DHT22;37894;53.172;6.598;2022-11-15T00:18:47;7.70;99.90
51853;DHT22;37894;53.172;6.598;2022-11-15T00:21:14;7.50;99.90
51853;DHT22;37894;53.172;6.598;2022-11-15T00:23:40;6.30;99.90
51853;DHT22;37894;53.172;6.598;2022-11-15T00:26:06;7.40;99.90
51853;DHT22;37894;53.172;6.598;2022-11-15T00:28:31;7.30;99.90
51853;DHT22;37894;53.172;6.598;2022-11-15T00:31:04;7.10;99.90
51853;DHT22;37894;53.172;6.598;2022-11-15T00:33:30;7.10;99.90
51853;DHT22;37894;53.172;6.598;2022-11-15T00:36:04;7.30;99.90
51853;DHT22;37894;53.172;6.598;2022-11-15T00:38:34;7.20;99.90
51853;DHT22;37894;53.172;6.598;2022-11-15T00:41:01;7.10;99.90
51853;DHT22;37894;53.172;6.598;2022-11-15T00:43:27;7.30;99.90
51853;DHT22;37894;53.172;6.598;2022-11-15T00:45:53;6.90;99.90
51853;DHT22;37894;53.172;6.598;2022-11-15T00:48:19;7.20;99.90
51853;DHT22;37894;53.172;6.598;2022-11-15T00:50:44;6.50;99.90
51853;DHT22;37894;53.172;6.598;2022-11-15T00:53:10;7.10;99.90
51853;DHT22;37894;53.172;6.598;2022-11-15T00:55:36;8.30;99.90
51853;DHT22;37894;53.172;6.598;2022-11-15T00:58:02;8.10;99.90
51853;DHT22;37894;53.172;6.598;2022-11-15T01:00:28;8.20;99.90
51853;DHT22;37894;53.172;6.598;2022-11-15T01:02:53;7.30;99.90
51853;DHT22;37894;53.172;6.598;2022-11-15T01:05:19;7.40;99.90
51853;DHT22;37894;53.172;6.598;2022-11-15T01:07:45;7.40;99.90
51853;DHT22;37894;53.172;6.598;2022-11-15T01:10:11;7.50;99.90
51853;DHT22;37894;53.172;6.598;2022-11-15T01:12:37;7.40;99.90
51853;DHT22;37894;53.172;6.598;2022-11-15T01:15:03;7.40;99.90
51853;DHT22;37894;53.172;6.598;2022-11-15T01:17:30;7.40;99.90
51853;DHT22;37894;53.172;6.598;2022-11-15T01:19:56;7.70;99.90
51853;DHT22;37894;53.172;6.598;2022-11-15T01:22:22;7.50;99.90
51853;DHT22;37894;53.172;6.598;2022-11-15T01:24:49;7.20;99.90
51853;DHT22;37894;53.172;6.598;2022-11-15T01:27:18;6.70;99.90
51853;DHT22;37894;53.172;6.598;2022-11-15T01:29:43;7.20;99.90
51853;DHT22;37894;53.172;6.598;2022-11-15T01:32:09;7.30;99.90
51853;DHT22;37894;53.172;6.598;2022-11-15T01:34:35;7.30;99.90
51853;DHT22;37894;53.172;6.598;2022-11-15T01:37:00;7.20;99.90
51853;DHT22;37894;53.172;6.598;2022-11-15T01:39:26;7.50;99.90
51853;DHT22;37894;53.172;6.598;2022-11-15T01:41:52;8.10;99.90
51853;DHT22;37894;53.172;6.598;2022-11-15T01:47:01;7.30;99.90
51853;DHT22;37894;53.172;6.598;2022-11-15T01:49:30;6.80;99.90
51853;DHT22;37894;53.172;6.598;2022-11-15T01:51:58;7.50;99.90
51853;DHT22;37894;53.172;6.598;2022-11-15T01:54:25;7.30;99.90
51853;DHT22;37894;53.172;6.598;2022-11-15T01:57:04;7.10;99.90
51853;DHT22;37894;53.172;6.598;2022-11-15T01:59:31;7.50;99.90
51853;DHT22;37894;53.172;6.598;2022-11-15T02:01:56;7.10;99.90
51853;DHT22;37894;53.172;6.598;2022-11-15T02:04:32;7.50;99.90
51853;DHT22;37894;53.172;6.598;2022-11-15T02:06:58;7.50;99.90
51853;DHT22;37894;53.172;6.598;2022-11-15T02:09:25;7.50;99.90
51853;DHT22;37894;53.172;6.598;2022-11-15T02:11:51;7.30;99.90
51853;DHT22;37894;53.172;6.598;2022-11-15T02:14:20;7.40;99.90
51853;DHT22;37894;53.172;6.598;2022-11-15T02:22:14;7.10;99.90
51853;DHT22;37894;53.172;6.598;2022-11-15T02:30:33;7.30;99.90
51853;DHT22;37894;53.172;6.598;2022-11-15T02:38:46;6.90;99.90
51853;DHT22;37894;53.172;6.598;2022-11-15T02:41:40;7.20;99.90
51853;DHT22;37894;53.172;6.598;2022-11-15T02:44:15;7.30;99.90
51853;DHT22;37894;53.172;6.598;2022-11-15T02:47:04;7.30;99.90
51853;DHT22;37894;53.172;6.598;2022-11-15T02:49:47;7.20;99.90
51853;DHT22;37894;53.172;6.598;2022-11-15T02:52:19;8.10;99.90
51853;DHT22;37894;53.172;6.598;2022-11-15T02:55:28;8.00;99.90
51853;DHT22;37894;53.172;6.598;2022-11-15T02:58:38;7.20;99.90
51853;DHT22;37894;53.172;6.598;2022-11-15T03:01:26;7.80;99.90
51853;DHT22;37894;53.172;6.598;2022-11-15T03:07:12;7.00;99.90
51853;DHT22;37894;53.172;6.598;2022-11-15T03:09:55;7.40;99.90
51853;DHT22;37894;53.172;6.598;2022-11-15T03:12:43;7.30;99.90
51853;DHT22;37894;53.172;6.598;2022-11-15T03:15:19;7.30;99.90
51853;DHT22;37894;53.172;6.598;2022-11-15T03:18:04;7.20;99.90
51853;DHT22;37894;53.172;6.598;2022-11-15T03:20:31;7.20;99.90
51853;DHT22;37894;53.172;6.598;2022-11-15T03:23:03;7.10;99.90
51853;DHT22;37894;53.172;6.598;2022-11-15T03:25:32;7.40;99.90
51853;DHT22;37894;53.172;6.598;2022-11-15T03:28:02;7.40;99.90
51853;DHT22;37894;53.172;6.598;2022-11-15T03:30:30;7.40;99.90
51853;DHT22;37894;53.172;6.598;2022-11-15T03:33:00;7.40;99.90
51853;DHT22;37894;53.172;6.598;2022-11-15T03:35:33;8.20;99.90
51853;DHT22;37894;53.172;6.598;2022-11-15T03:41:03;7.70;99.90
51853;DHT22;37894;53.172;6.598;2022-11-15T03:43:47;7.60;99.90
51853;DHT22;37894;53.172;6.598;2022-11-15T03:46:23;7.90;99.90
51853;DHT22;37894;53.172;6.598;2022-11-15T03:48:53;7.00;99.90
51853;DHT22;37894;53.172;6.598;2022-11-15T03:51:20;7.50;99.90
51853;DHT22;37894;53.172;6.598;2022-11-15T03:53:46;7.60;99.90
51853;DHT22;37894;53.172;6.598;2022-11-15T03:56:12;7.60;99.90
51853;DHT22;37894;53.172;6.598;2022-11-15T03:58:38;7.50;99.90
51853;DHT22;37894;53.172;6.598;2022-11-15T04:01:03;7.60;99.90
51853;DHT22;37894;53.172;6.598;2022-11-15T04:03:29;7.80;99.90
51853;DHT22;37894;53.172;6.598;2022-11-15T04:05:55;7.60;99.90
51853;DHT22;37894;53.172;6.598;2022-11-15T04:08:20;7.70;99.90
51853;DHT22;37894;53.172;6.598;2022-11-15T04:10:48;7.60;99.90
51853;DHT22;37894;53.172;6.598;2022-11-15T04:13:14;7.60;99.90
51853;DHT22;37894;53.172;6.598;2022-11-15T04:15:40;7.70;99.90
51853;DHT22;37894;53.172;6.598;2022-11-15T04:18:05;7.70;99.90
51853;DHT22;37894;53.172;6.598;2022-11-15T04:20:31;7.40;99.90
51853;DHT22;37894;53.172;6.598;2022-11-15T04:23:20;7.70;99.90
51853;DHT22;37894;53.172;6.598;2022-11-15T04:26:13;7.70;99.90
51853;DHT22;37894;53.172;6.598;2022-11-15T04:28:40;7.90;99.90
51853;DHT22;37894;53.172;6.598;2022-11-15T04:31:26;7.70;99.90
51853;DHT22;37894;53.172;6.598;2022-11-15T04:33:52;8.00;99.90
51853;DHT22;37894;53.172;6.598;2022-11-15T04:36:18;7.80;99.90
51853;DHT22;37894;53.172;6.598;2022-11-15T04:39:02;7.80;99.90
51853;DHT22;37894;53.172;6.598;2022-11-15T04:41:28;7.70;99.90
51853;DHT22;37894;53.172;6.598;2022-11-15T04:43:54;7.90;99.90
51853;DHT22;37894;53.172;6.598;2022-11-15T04:46:21;7.90;99.90
51853;DHT22;37894;53.172;6.598;2022-11-15T04:48:47;7.90;99.90
51853;DHT22;37894;53.172;6.598;2022-11-15T04:51:12;7.80;99.90
51853;DHT22;37894;53.172;6.598;2022-11-15T04:53:38;8.10;99.90
51853;DHT22;37894;53.172;6.598;2022-11-15T04:56:04;8.20;99.90
51853;DHT22;37894;53.172;6.598;2022-11-15T04:58:29;7.90;99.90
51853;DHT22;37894;53.172;6.598;2022-11-15T05:00:55;7.90;99.90
51853;DHT22;37894;53.172;6.598;2022-11-15T05:03:21;7.90;99.90
51853;DHT22;37894;53.172;6.598;2022-11-15T05:06:05;7.70;99.90
51853;DHT22;37894;53.172;6.598;2022-11-15T05:08:32;8.00;99.90
51853;DHT22;37894;53.172;6.598;2022-11-15T05:10:58;8.00;99.90
51853;DHT22;37894;53.172;6.598;2022-11-15T05:13:23;8.00;99.90
51853;DHT22;37894;53.172;6.598;2022-11-15T05:15:49;8.20;99.90
51853;DHT22;37894;53.172;6.598;2022-11-15T05:18:15;8.10;99.90
51853;DHT22;37894;53.172;6.598;2022-11-15T05:20:40;8.40;99.90
51853;DHT22;37894;53.172;6.598;2022-11-15T05:23:06;8.10;99.90
51853;DHT22;37894;53.172;6.598;2022-11-15T05:25:32;8.10;99.90
51853;DHT22;37894;53.172;6.598;2022-11-15T05:27:58;8.20;99.90
51853;DHT22;37894;53.172;6.598;2022-11-15T05:30:23;8.20;99.90
51853;DHT22;37894;53.172;6.598;2022-11-15T05:32:49;8.20;99.90
51853;DHT22;37894;53.172;6.598;2022-11-15T05:35:24;8.20;99.90
51853;DHT22;37894;53.172;6.598;2022-11-15T05:37:51;8.30;99.90
51853;DHT22;37894;53.172;6.598;2022-11-15T05:40:17;8.30;99.90
51853;DHT22;37894;53.172;6.598;2022-11-15T05:42:42;8.40;99.90
51853;DHT22;37894;53.172;6.598;2022-11-15T05:45:09;8.30;99.90
51853;DHT22;37894;53.172;6.598;2022-11-15T05:47:36;8.90;99.90
51853;DHT22;37894;53.172;6.598;2022-11-15T05:50:04;8.40;99.90
51853;DHT22;37894;53.172;6.598;2022-11-15T05:52:31;8.50;99.90
51853;DHT22;37894;53.172;6.598;2022-11-15T05:54:59;8.50;99.90
51853;DHT22;37894;53.172;6.598;2022-11-15T05:57:24;8.50;99.90
51853;DHT22;37894;53.172;6.598;2022-11-15T05:59:50;8.50;99.90
51853;DHT22;37894;53.172;6.598;2022-11-15T06:02:17;8.60;99.90
51853;DHT22;37894;53.172;6.598;2022-11-15T06:04:42;8.70;99.90
51853;DHT22;37894;53.172;6.598;2022-11-15T06:07:08;8.90;99.90
51853;DHT22;37894;53.172;6.598;2022-11-15T06:09:33;8.70;99.90
51853;DHT22;37894;53.172;6.598;2022-11-15T06:11:59;8.80;99.90
51853;DHT22;37894;53.172;6.598;2022-11-15T06:14:25;8.80;99.90
51853;DHT22;37894;53.172;6.598;2022-11-15T06:16:50;8.80;99.90
51853;DHT22;37894;53.172;6.598;2022-11-15T06:19:16;8.90;99.90
51853;DHT22;37894;53.172;6.598;2022-11-15T06:21:42;8.90;99.90
51853;DHT22;37894;53.172;6.598;2022-11-15T06:24:08;9.80;99.90
51853;DHT22;37894;53.172;6.598;2022-11-15T06:26:33;9.80;99.90
51853;DHT22;37894;53.172;6.598;2022-11-15T06:28:59;9.00;99.90
51853;DHT22;37894;53.172;6.598;2022-11-15T06:31:25;9.20;99.90
51853;DHT22;37894;53.172;6.598;2022-11-15T06:33:50;9.10;99.90
51853;DHT22;37894;53.172;6.598;2022-11-15T06:36:16;9.10;99.90
51853;DHT22;37894;53.172;6.598;2022-11-15T06:38:46;9.20;99.90
51853;DHT22;37894;53.172;6.598;2022-11-15T06:41:12;9.20;99.90
51853;DHT22;37894;53.172;6.598;2022-11-15T06:43:39;9.30;99.90
51853;DHT22;37894;53.172;6.598;2022-11-15T06:46:05;9.30;99.90
51853;DHT22;37894;53.172;6.598;2022-11-15T06:48:32;9.30;99.90
51853;DHT22;37894;53.172;6.598;2022-11-15T06:51:00;9.50;99.90
51853;DHT22;37894;53.172;6.598;2022-11-15T06:53:27;9.40;99.90
51853;DHT22;37894;53.172;6.598;2022-11-15T06:55:53;9.40;99.90
51853;DHT22;37894;53.172;6.598;2022-11-15T06:58:21;9.50;99.90
51853;DHT22;37894;53.172;6.598;2022-11-15T07:00:46;11.50;99.90
51853;DHT22;37894;53.172;6.598;2022-11-15T07:03:12;9.90;99.90
51853;DHT22;37894;53.172;6.598;2022-11-15T07:05:38;9.50;99.90
51853;DHT22;37894;53.172;6.598;2022-11-15T07:08:04;9.60;99.90
51853;DHT22;37894;53.172;6.598;2022-11-15T07:10:29;9.80;99.90
51853;DHT22;37894;53.172;6.598;2022-11-15T07:12:56;9.70;99.90
51853;DHT22;37894;53.172;6.598;2022-11-15T07:15:24;9.70;99.90
51853;DHT22;37894;53.172;6.598;2022-11-15T07:17:50;9.70;99.90
51853;DHT22;37894;53.172;6.598;2022-11-15T07:20:16;9.70;99.90
51853;DHT22;37894;53.172;6.598;2022-11-15T07:22:42;9.90;99.90
51853;DHT22;37894;53.172;6.598;2022-11-15T07:25:11;9.70;99.90
51853;DHT22;37894;53.172;6.598;2022-11-15T07:27:37;9.90;99.90
51853;DHT22;37894;53.172;6.598;2022-11-15T07:30:03;9.80;99.90
51853;DHT22;37894;53.172;6.598;2022-11-15T07:32:29;9.80;99.90
51853;DHT22;37894;53.172;6.598;2022-11-15T07:34:55;10.10;99.90
51853;DHT22;37894;53.172;6.598;2022-11-15T07:37:20;9.90;99.90
51853;DHT22;37894;53.172;6.598;2022-11-15T07:39:46;9.90;99.90
51853;DHT22;37894;53.172;6.598;2022-11-15T07:42:11;9.90;99.90
51853;DHT22;37894;53.172;6.598;2022-11-15T07:44:56;10.00;99.90
51853;DHT22;37894;53.172;6.598;2022-11-15T07:47:21;10.20;99.90
51853;DHT22;37894;53.172;6.598;2022-11-15T07:49:47;10.00;99.90
51853;DHT22;37894;53.172;6.598;2022-11-15T07:52:13;10.00;99.90
51853;DHT22;37894;53.172;6.598;2022-11-15T07:54:39;10.30;99.90
51853;DHT22;37894;53.172;6.598;2022-11-15T07:57:05;10.10;99.90
51853;DHT22;37894;53.172;6.598;2022-11-15T07:59:32;10.10;99.90
51853;DHT22;37894;53.172;6.598;2022-11-15T08:01:58;10.20;99.90
51853;DHT22;37894;53.172;6.598;2022-11-15T08:04:24;10.10;99.90
51853;DHT22;37894;53.172;6.598;2022-11-15T08:06:51;10.30;99.90
51853;DHT22;37894;53.172;6.598;2022-11-15T08:09:16;10.20;99.90
51853;DHT22;37894;53.172;6.598;2022-11-15T08:11:42;11.00;99.90
51853;DHT22;37894;53.172;6.598;2022-11-15T08:14:08;10.30;99.90
51853;DHT22;37894;53.172;6.598;2022-11-15T08:16:34;10.40;99.90
51853;DHT22;37894;53.172;6.598;2022-11-15T08:19:00;10.40;99.90
51853;DHT22;37894;53.172;6.598;2022-11-15T08:21:25;10.40;99.90
51853;DHT22;37894;53.172;6.598;2022-11-15T08:23:51;10.40;99.90
51853;DHT22;37894;53.172;6.598;2022-11-15T08:26:18;10.40;99.90
51853;DHT22;37894;53.172;6.598;2022-11-15T08:28:43;11.10;99.90
51853;DHT22;37894;53.172;6.598;2022-11-15T08:31:17;10.40;99.90
51853;DHT22;37894;53.172;6.598;2022-11-15T08:33:43;10.60;99.90
51853;DHT22;37894;53.172;6.598;2022-11-15T08:36:14;10.60;99.90
51853;DHT22;37894;53.172;6.598;2022-11-15T08:38:41;10.60;99.90
51853;DHT22;37894;53.172;6.598;2022-11-15T08:41:21;10.50;99.90
51853;DHT22;37894;53.172;6.598;2022-11-15T08:43:49;10.70;99.90
51853;DHT22;37894;53.172;6.598;2022-11-15T08:46:15;10.40;99.90
51853;DHT22;37894;53.172;6.598;2022-11-15T08:48:41;10.70;99.90
51853;DHT22;37894;53.172;6.598;2022-11-15T08:51:07;10.70;99.90
51853;DHT22;37894;53.172;6.598;2022-11-15T08:53:33;10.70;99.90
51853;DHT22;37894;53.172;6.598;2022-11-15T08:55:59;10.80;99.90
51853;DHT22;37894;53.172;6.598;2022-11-15T08:58:25;10.80;99.90
51853;DHT22;37894;53.172;6.598;2022-11-15T09:00:51;10.80;99.90
51853;DHT22;37894;53.172;6.598;2022-11-15T09:03:17;10.90;99.90
51853;DHT22;37894;53.172;6.598;2022-11-15T09:05:42;10.90;99.90
51853;DHT22;37894;53.172;6.598;2022-11-15T09:08:09;10.90;99.90
51853;DHT22;37894;53.172;6.598;2022-11-15T09:10:35;11.00;99.90
51853;DHT22;37894;53.172;6.598;2022-11-15T09:13:01;11.20;99.90
51853;DHT22;37894;53.172;6.598;2022-11-15T09:15:26;11.10;99.90
51853;DHT22;37894;53.172;6.598;2022-11-15T09:17:52;11.10;99.90
51853;DHT22;37894;53.172;6.598;2022-11-15T09:20:18;11.10;99.90
51853;DHT22;37894;53.172;6.598;2022-11-15T09:22:43;11.20;99.90
51853;DHT22;37894;53.172;6.598;2022-11-15T09:25:09;11.30;99.90
51853;DHT22;37894;53.172;6.598;2022-11-15T09:27:35;11.40;99.90
51853;DHT22;37894;53.172;6.598;2022-11-15T09:30:01;11.30;99.90
51853;DHT22;37894;53.172;6.598;2022-11-15T09:32:30;11.30;99.90
51853;DHT22;37894;53.172;6.598;2022-11-15T09:34:58;11.30;99.90
51853;DHT22;37894;53.172;6.598;2022-11-15T09:37:24;11.40;99.90
51853;DHT22;37894;53.172;6.598;2022-11-15T09:39:50;11.30;99.90
51853;DHT22;37894;53.172;6.598;2022-11-15T09:45:26;11.60;99.90
51853;DHT22;37894;53.172;6.598;2022-11-15T09:50:46;11.50;99.90
51853;DHT22;37894;53.172;6.598;2022-11-15T09:53:37;11.50;99.90
51853;DHT22;37894;53.172;6.598;2022-11-15T09:56:26;11.60;99.90
51853;DHT22;37894;53.172;6.598;2022-11-15T09:58:59;11.80;99.90
51853;DHT22;37894;53.172;6.598;2022-11-15T10:04:11;11.70;99.90
51853;DHT22;37894;53.172;6.598;2022-11-15T10:06:40;11.60;99.90
51853;DHT22;37894;53.172;6.598;2022-11-15T10:09:26;11.60;99.90
51853;DHT22;37894;53.172;6.598;2022-11-15T10:11:54;11.60;99.90
51853;DHT22;37894;53.172;6.598;2022-11-15T10:14:22;11.60;99.90
51853;DHT22;37894;53.172;6.598;2022-11-15T10:22:38;11.70;99.90
51853;DHT22;37894;53.172;6.598;2022-11-15T10:27:45;11.80;99.90
51853;DHT22;37894;53.172;6.598;2022-11-15T10:30:15;11.80;99.90
51853;DHT22;37894;53.172;6.598;2022-11-15T10:32:43;11.80;99.90
51853;DHT22;37894;53.172;6.598;2022-11-15T10:35:26;11.90;99.90
51853;DHT22;37894;53.172;6.598;2022-11-15T10:38:08;11.90;99.90
51853;DHT22;37894;53.172;6.598;2022-11-15T10:40:35;11.90;99.90
51853;DHT22;37894;53.172;6.598;2022-11-15T10:43:14;11.90;99.90
51853;DHT22;37894;53.172;6.598;2022-11-15T10:45:40;11.90;99.90
51853;DHT22;37894;53.172;6.598;2022-11-15T10:48:25;11.90;99.90
51853;DHT22;37894;53.172;6.598;2022-11-15T10:50:52;12.00;99.90
51853;DHT22;37894;53.172;6.598;2022-11-15T10:53:32;11.90;99.90
51853;DHT22;37894;53.172;6.598;2022-11-15T10:56:03;11.90;99.90
51853;DHT22;37894;53.172;6.598;2022-11-15T10:58:36;11.90;99.90
51853;DHT22;37894;53.172;6.598;2022-11-15T11:01:11;11.90;99.90
51853;DHT22;37894;53.172;6.598;2022-11-15T11:03:39;12.00;99.90
51853;DHT22;37894;53.172;6.598;2022-11-15T11:06:08;12.00;99.90
51853;DHT22;37894;53.172;6.598;2022-11-15T11:08:34;11.90;99.90
51853;DHT22;37894;53.172;6.598;2022-11-15T11:11:02;11.90;99.90
51853;DHT22;37894;53.172;6.598;2022-11-15T11:13:37;11.90;99.90
51853;DHT22;37894;53.172;6.598;2022-11-15T11:21:15;11.80;99.90
51853;DHT22;37894;53.172;6.598;2022-11-15T11:23:59;11.80;99.90
51853;DHT22;37894;53.172;6.598;2022-11-15T11:26:42;11.90;99.90
51853;DHT22;37894;53.172;6.598;2022-11-15T11:35:28;12.00;99.90
51853;DHT22;37894;53.172;6.598;2022-11-15T11:38:30;12.10;99.90
51853;DHT22;37894;53.172;6.598;2022-11-15T11:43:46;12.30;99.90
51853;DHT22;37894;53.172;6.598;2022-11-15T11:46:18;12.40;99.90
51853;DHT22;37894;53.172;6.598;2022-11-15T11:49:01;12.50;99.90
51853;DHT22;37894;53.172;6.598;2022-11-15T11:57:06;12.80;99.90
51853;DHT22;37894;53.172;6.598;2022-11-15T11:59:53;12.50;99.90
51853;DHT22;37894;53.172;6.598;2022-11-15T12:02:40;12.70;99.90
51853;DHT22;37894;53.172;6.598;2022-11-15T12:05:47;12.60;99.90
51853;DHT22;37894;53.172;6.598;2022-11-15T12:08:41;12.60;99.90
51853;DHT22;37894;53.172;6.598;2022-11-15T12:14:05;12.50;99.90
51853;DHT22;37894;53.172;6.598;2022-11-15T12:16:32;12.40;99.90
51853;DHT22;37894;53.172;6.598;2022-11-15T12:19:03;12.40;99.90
51853;DHT22;37894;53.172;6.598;2022-11-15T12:21:46;13.40;99.90
51853;DHT22;37894;53.172;6.598;2022-11-15T12:24:33;12.40;99.90
51853;DHT22;37894;53.172;6.598;2022-11-15T12:29:44;12.30;99.90
51853;DHT22;37894;53.172;6.598;2022-11-15T12:32:34;11.50;99.90
51853;DHT22;37894;53.172;6.598;2022-11-15T12:35:02;12.20;99.90
51853;DHT22;37894;53.172;6.598;2022-11-15T12:42:44;12.30;99.90
51853;DHT22;37894;53.172;6.598;2022-11-15T12:47:53;12.30;99.90
51853;DHT22;37894;53.172;6.598;2022-11-15T13:07:05;12.20;99.90
51853;DHT22;37894;53.172;6.598;2022-11-15T13:12:47;12.70;99.90
51853;DHT22;37894;53.172;6.598;2022-11-15T13:15:00;12.80;99.90
51853;DHT22;37894;53.172;6.598;2022-11-15T13:17:35;12.80;99.90
51853;DHT22;37894;53.172;6.598;2022-11-15T13:28:17;12.70;99.90
51853;DHT22;37894;53.172;6.598;2022-11-15T13:30:56;12.70;99.90
51853;DHT22;37894;53.172;6.598;2022-11-15T13:33:32;12.60;99.90
51853;DHT22;37894;53.172;6.598;2022-11-15T13:36:01;12.50;99.90
51853;DHT22;37894;53.172;6.598;2022-11-15T13:38:33;12.50;99.90
51853;DHT22;37894;53.172;6.598;2022-11-15T13:41:20;12.80;99.90
51853;DHT22;37894;53.172;6.598;2022-11-15T13:43:47;12.30;99.90
51853;DHT22;37894;53.172;6.598;2022-11-15T13:46:18;12.30;99.90
51853;DHT22;37894;53.172;6.598;2022-11-15T13:48:46;12.30;99.90
51853;DHT22;37894;53.172;6.598;2022-11-15T13:53:45;12.20;99.90
51853;DHT22;37894;53.172;6.598;2022-11-15T13:56:13;14.00;99.90
51853;DHT22;37894;53.172;6.598;2022-11-15T13:58:40;12.20;99.90
51853;DHT22;37894;53.172;6.598;2022-11-15T14:01:06;12.10;99.90
51853;DHT22;37894;53.172;6.598;2022-11-15T14:03:42;12.10;99.90
51853;DHT22;37894;53.172;6.598;2022-11-15T14:06:16;12.10;99.90
51853;DHT22;37894;53.172;6.598;2022-11-15T14:11:23;12.00;99.90
51853;DHT22;37894;53.172;6.598;2022-11-15T14:16:53;12.00;99.90
51853;DHT22;37894;53.172;6.598;2022-11-15T14:24:44;12.00;99.90
51853;DHT22;37894;53.172;6.598;2022-11-15T14:27:26;11.90;99.90
51853;DHT22;37894;53.172;6.598;2022-11-15T14:29:52;11.80;99.90
51853;DHT22;37894;53.172;6.598;2022-11-15T14:32:21;11.80;99.90
51853;DHT22;37894;53.172;6.598;2022-11-15T14:34:49;11.70;99.90
51853;DHT22;37894;53.172;6.598;2022-11-15T14:37:30;11.70;99.90
51853;DHT22;37894;53.172;6.598;2022-11-15T14:40:01;11.70;99.90
51853;DHT22;37894;53.172;6.598;2022-11-15T14:42:28;10.80;99.90
51853;DHT22;37894;53.172;6.598;2022-11-15T14:44:54;11.70;99.90
51853;DHT22;37894;53.172;6.598;2022-11-15T14:47:20;11.60;99.90
51853;DHT22;37894;53.172;6.598;2022-11-15T14:49:46;11.60;99.90
51853;DHT22;37894;53.172;6.598;2022-11-15T14:52:28;11.50;99.90
51853;DHT22;37894;53.172;6.598;2022-11-15T14:54:55;11.50;99.90
51853;DHT22;37894;53.172;6.598;2022-11-15T14:57:21;11.40;99.90
51853;DHT22;37894;53.172;6.598;2022-11-15T14:59:47;11.40;99.90
51853;DHT22;37894;53.172;6.598;2022-11-15T15:02:22;13.20;99.90
51853;DHT22;37894;53.172;6.598;2022-11-15T15:04:48;11.30;99.90
51853;DHT22;37894;53.172;6.598;2022-11-15T15:07:15;11.20;99.90
51853;DHT22;37894;53.172;6.598;2022-11-15T15:09:42;11.20;99.90
51853;DHT22;37894;53.172;6.598;2022-11-15T15:12:19;11.10;99.90
51853;DHT22;37894;53.172;6.598;2022-11-15T15:14:47;11.10;99.90
51853;DHT22;37894;53.172;6.598;2022-11-15T15:17:14;11.00;99.90
51853;DHT22;37894;53.172;6.598;2022-11-15T15:19:40;11.00;99.90
51853;DHT22;37894;53.172;6.598;2022-11-15T15:22:08;10.90;99.90
51853;DHT22;37894;53.172;6.598;2022-11-15T15:24:34;10.80;99.90
51853;DHT22;37894;53.172;6.598;2022-11-15T15:27:00;10.70;99.90
51853;DHT22;37894;53.172;6.598;2022-11-15T15:29:25;10.70;99.90
51853;DHT22;37894;53.172;6.598;2022-11-15T15:31:51;9.80;99.90
51853;DHT22;37894;53.172;6.598;2022-11-15T15:34:17;10.60;99.90
51853;DHT22;37894;53.172;6.598;2022-11-15T15:36:44;10.60;99.90
51853;DHT22;37894;53.172;6.598;2022-11-15T15:39:10;10.30;99.90
51853;DHT22;37894;53.172;6.598;2022-11-15T15:41:37;10.60;99.90
51853;DHT22;37894;53.172;6.598;2022-11-15T15:44:02;10.50;99.90
51853;DHT22;37894;53.172;6.598;2022-11-15T15:46:28;10.50;99.90
51853;DHT22;37894;53.172;6.598;2022-11-15T15:48:54;10.50;99.90
51853;DHT22;37894;53.172;6.598;2022-11-15T15:51:20;10.40;99.90
51853;DHT22;37894;53.172;6.598;2022-11-15T15:53:45;10.50;99.90
51853;DHT22;37894;53.172;6.598;2022-11-15T15:56:11;10.40;99.90
51853;DHT22;37894;53.172;6.598;2022-11-15T15:58:37;10.40;99.90
51853;DHT22;37894;53.172;6.598;2022-11-15T16:01:02;10.40;99.90
51853;DHT22;37894;53.172;6.598;2022-11-15T16:03:28;10.40;99.90
51853;DHT22;37894;53.172;6.598;2022-11-15T16:05:54;10.40;99.90
51853;DHT22;37894;53.172;6.598;2022-11-15T16:08:22;10.30;99.90
51853;DHT22;37894;53.172;6.598;2022-11-15T16:10:48;10.30;99.90
51853;DHT22;37894;53.172;6.598;2022-11-15T16:13:14;10.30;99.90
51853;DHT22;37894;53.172;6.598;2022-11-15T16:15:41;10.30;99.90
51853;DHT22;37894;53.172;6.598;2022-11-15T16:18:14;10.30;99.90
51853;DHT22;37894;53.172;6.598;2022-11-15T16:20:42;10.10;99.90
51853;DHT22;37894;53.172;6.598;2022-11-15T16:23:14;9.10;99.90
51853;DHT22;37894;53.172;6.598;2022-11-15T16:28:21;10.20;99.90
51853;DHT22;37894;53.172;6.598;2022-11-15T16:30:48;10.20;99.90
51853;DHT22;37894;53.172;6.598;2022-11-15T16:33:17;10.20;99.90
51853;DHT22;37894;53.172;6.598;2022-11-15T16:35:44;10.10;99.90
51853;DHT22;37894;53.172;6.598;2022-11-15T16:38:15;10.10;99.90
51853;DHT22;37894;53.172;6.598;2022-11-15T16:40:41;10.20;99.90
51853;DHT22;37894;53.172;6.598;2022-11-15T16:43:06;10.10;99.90
51853;DHT22;37894;53.172;6.598;2022-11-15T16:45:34;10.20;99.90
51853;DHT22;37894;53.172;6.598;2022-11-15T16:48:00;10.20;99.90
51853;DHT22;37894;53.172;6.598;2022-11-15T16:50:28;10.30;99.90
51853;DHT22;37894;53.172;6.598;2022-11-15T16:52:56;10.20;99.90
51853;DHT22;37894;53.172;6.598;2022-11-15T16:55:24;10.20;99.90
51853;DHT22;37894;53.172;6.598;2022-11-15T16:57:50;10.50;99.90
51853;DHT22;37894;53.172;6.598;2022-11-15T17:00:17;11.10;99.90
51853;DHT22;37894;53.172;6.598;2022-11-15T17:02:45;10.40;99.90
51853;DHT22;37894;53.172;6.598;2022-11-15T17:05:11;10.40;99.90
51853;DHT22;37894;53.172;6.598;2022-11-15T17:07:38;10.40;99.90
51853;DHT22;37894;53.172;6.598;2022-11-15T17:10:05;10.50;99.90
51853;DHT22;37894;53.172;6.598;2022-11-15T17:12:33;10.50;99.90
51853;DHT22;37894;53.172;6.598;2022-11-15T17:14:59;10.50;99.90
51853;DHT22;37894;53.172;6.598;2022-11-15T17:17:25;10.10;99.90
51853;DHT22;37894;53.172;6.598;2022-11-15T17:19:52;10.60;99.90
51853;DHT22;37894;53.172;6.598;2022-11-15T17:22:22;10.50;99.90
51853;DHT22;37894;53.172;6.598;2022-11-15T17:24:47;10.60;99.90
51853;DHT22;37894;53.172;6.598;2022-11-15T17:27:13;10.60;99.90
51853;DHT22;37894;53.172;6.598;2022-11-15T17:29:40;10.60;99.90
51853;DHT22;37894;53.172;6.598;2022-11-15T17:32:06;10.60;99.90
51853;DHT22;37894;53.172;6.598;2022-11-15T17:34:32;9.90;99.90
51853;DHT22;37894;53.172;6.598;2022-11-15T17:36:57;10.50;99.90
51853;DHT22;37894;53.172;6.598;2022-11-15T17:39:23;10.50;99.90
51853;DHT22;37894;53.172;6.598;2022-11-15T17:41:49;10.50;99.90
51853;DHT22;37894;53.172;6.598;2022-11-15T17:44:15;10.20;99.90
51853;DHT22;37894;53.172;6.598;2022-11-15T17:46:42;9.20;99.90
51853;DHT22;37894;53.172;6.598;2022-11-15T17:49:07;10.40;99.90
51853;DHT22;37894;53.172;6.598;2022-11-15T17:51:33;10.40;99.90